createdAt,value
2019-03-31T00:01:17.454Z,27.15
2019-03-31T00:02:53.021Z,26.07
2019-03-31T00:04:28.960Z,27.25
2019-03-31T00:06:04.544Z,28.20
2019-03-31T00:07:40.121Z,26.17
2019-03-31T00:09:15.770Z,26.95
2019-03-31T00:10:51.711Z,27.45
2019-03-31T00:12:27.302Z,26.33
2019-03-31T00:14:03.146Z,25.70
2019-03-31T00:15:40.001Z,26.73
2019-03-31T00:17:15.836Z,25.62
2019-03-31T00:18:51.641Z,25.90
2019-03-31T00:20:27.228Z,25.27
2019-03-31T00:22:02.797Z,26.17
2019-03-31T00:23:38.743Z,23.25
2019-03-31T00:25:14.735Z,23.30
2019-03-31T00:26:50.306Z,24.60
2019-03-31T00:28:25.975Z,24.77
2019-03-31T00:30:01.659Z,25.23
2019-03-31T00:31:37.541Z,24.35
2019-03-31T00:33:12.501Z,23.32
2019-03-31T00:34:47.650Z,24.10
2019-03-31T00:36:22.653Z,24.47
2019-03-31T00:37:57.861Z,24.65
2019-03-31T00:39:32.817Z,24.75
2019-03-31T00:41:07.712Z,24.90
2019-03-31T00:42:42.693Z,23.18
2019-03-31T00:44:17.576Z,23.07
2019-03-31T00:45:52.526Z,22.90
2019-03-31T00:47:27.829Z,25.20
2019-03-31T00:49:03.665Z,23.73
2019-03-31T00:50:39.503Z,22.20
2019-03-31T00:52:15.068Z,24.12
2019-03-31T00:53:51.149Z,23.02
2019-03-31T00:55:27.086Z,22.65
2019-03-31T00:57:02.917Z,22.00
2019-03-31T00:58:38.491Z,23.25
2019-03-31T01:00:36.176Z,23.95
2019-03-31T01:02:17.149Z,23.67
2019-03-31T01:03:53.241Z,24.15
2019-03-31T01:05:29.062Z,22.10
2019-03-31T01:07:04.854Z,22.05
2019-03-31T01:08:40.421Z,22.30
2019-03-31T01:10:16.436Z,23.18
2019-03-31T01:11:51.773Z,22.85
2019-03-31T01:13:27.142Z,21.93
2019-03-31T01:15:03.193Z,20.17
2019-03-31T01:16:38.782Z,21.65
2019-03-31T01:18:14.137Z,21.95
2019-03-31T01:19:49.305Z,24.27
2019-03-31T01:21:24.781Z,23.42
2019-03-31T01:22:59.862Z,22.98
2019-03-31T01:24:35.329Z,22.17
2019-03-31T01:26:10.796Z,24.63
2019-03-31T01:27:45.941Z,25.85
2019-03-31T01:29:22.041Z,23.85
2019-03-31T01:30:56.992Z,23.67
2019-03-31T01:32:32.020Z,24.32
2019-03-31T01:34:06.901Z,22.62
2019-03-31T01:35:41.787Z,22.55
2019-03-31T01:37:19.927Z,22.30
2019-03-31T01:38:53.886Z,20.70
2019-03-31T01:40:29.028Z,23.52
2019-03-31T01:42:04.452Z,22.62
2019-03-31T01:43:39.334Z,23.27
2019-03-31T01:45:15.084Z,24.32
2019-03-31T01:46:50.328Z,23.30
2019-03-31T01:48:26.352Z,22.70
2019-03-31T01:50:01.923Z,20.85
2019-03-31T01:51:37.542Z,22.10
2019-03-31T01:53:13.118Z,20.37
2019-03-31T01:54:49.002Z,20.45
2019-03-31T01:56:24.906Z,18.45
2019-03-31T01:58:00.744Z,19.92
2019-03-31T01:59:35.945Z,21.25
2019-03-31T02:01:13.402Z,21.60
2019-03-31T02:02:48.293Z,20.90
2019-03-31T02:04:23.849Z,21.27
2019-03-31T02:05:59.080Z,20.65
2019-03-31T02:07:34.359Z,20.75
2019-03-31T02:09:09.253Z,19.42
2019-03-31T02:10:44.145Z,20.92
2019-03-31T02:12:19.138Z,20.55
2019-03-31T02:13:54.323Z,19.55
2019-03-31T02:15:29.210Z,21.73
2019-03-31T02:17:04.121Z,21.93
2019-03-31T02:18:39.013Z,20.97
2019-03-31T02:20:14.002Z,20.55
2019-03-31T02:21:48.888Z,19.25
2019-03-31T02:23:23.806Z,20.50
2019-03-31T02:24:59.007Z,21.10
2019-03-31T02:26:33.885Z,20.02
2019-03-31T02:28:08.768Z,22.95
2019-03-31T02:29:43.682Z,24.20
2019-03-31T02:31:18.940Z,23.18
2019-03-31T02:32:54.162Z,20.82
2019-03-31T02:34:29.153Z,21.95
2019-03-31T02:36:04.129Z,21.05
2019-03-31T02:37:39.036Z,22.60
2019-03-31T02:39:13.932Z,24.10
2019-03-31T02:40:49.022Z,26.65
2019-03-31T02:42:24.169Z,25.72
2019-03-31T02:43:59.959Z,26.07
2019-03-31T02:45:35.790Z,24.00
2019-03-31T02:47:11.384Z,25.68
2019-03-31T02:48:46.958Z,26.07
2019-03-31T02:50:55.447Z,25.05
2019-03-31T02:52:31.197Z,24.57
2019-03-31T02:54:07.117Z,24.25
2019-03-31T02:55:44.976Z,24.07
2019-03-31T02:57:22.787Z,22.98
2019-03-31T02:59:01.121Z,23.05
2019-03-31T03:00:37.869Z,22.35
2019-03-31T03:02:15.395Z,21.25
2019-03-31T03:03:53.204Z,23.40
2019-03-31T03:05:32.700Z,23.10
2019-03-31T03:07:10.370Z,22.62
2019-03-31T03:08:49.937Z,22.87
2019-03-31T03:10:27.853Z,21.62
2019-03-31T03:12:07.211Z,23.35
2019-03-31T03:13:45.210Z,22.32
2019-03-31T03:15:29.025Z,22.37
2019-03-31T03:17:04.672Z,23.20
2019-03-31T03:18:40.367Z,22.95
2019-03-31T03:20:16.224Z,22.00
2019-03-31T03:21:51.799Z,22.42
2019-03-31T03:23:27.378Z,22.55
2019-03-31T03:25:03.458Z,23.20
2019-03-31T03:26:39.051Z,22.52
2019-03-31T03:28:14.615Z,21.40
2019-03-31T03:29:50.223Z,21.70
2019-03-31T03:31:25.898Z,21.75
2019-03-31T03:33:14.809Z,21.23
2019-03-31T03:34:38.791Z,20.50
2019-03-31T03:36:15.763Z,19.27
2019-03-31T03:37:51.457Z,20.70
2019-03-31T03:39:26.397Z,20.02
2019-03-31T03:41:01.294Z,20.12
2019-03-31T03:42:36.615Z,19.98
2019-03-31T03:44:11.878Z,20.10
2019-03-31T03:45:46.812Z,20.02
2019-03-31T03:47:21.852Z,18.40
2019-03-31T03:48:56.828Z,17.82
2019-03-31T03:50:32.160Z,19.27
2019-03-31T03:52:07.071Z,19.50
2019-03-31T03:53:42.314Z,18.98
2019-03-31T03:55:17.398Z,19.60
2019-03-31T03:56:52.283Z,19.95
2019-03-31T03:58:27.245Z,19.52
2019-03-31T04:00:02.389Z,19.82
2019-03-31T04:01:37.281Z,20.08
2019-03-31T04:03:29.137Z,19.95
2019-03-31T04:04:48.818Z,18.87
2019-03-31T04:06:24.664Z,19.55
2019-03-31T04:08:00.609Z,20.00
2019-03-31T04:09:36.199Z,18.85
2019-03-31T04:11:38.131Z,19.50
2019-03-31T04:13:14.162Z,20.65
2019-03-31T04:14:49.762Z,20.23
2019-03-31T04:16:26.031Z,19.32
2019-03-31T04:18:01.645Z,20.05
2019-03-31T04:19:37.481Z,20.12
2019-03-31T04:21:14.355Z,21.12
2019-03-31T04:22:49.952Z,22.17
2019-03-31T04:24:25.888Z,22.35
2019-03-31T04:26:01.466Z,23.35
2019-03-31T04:27:37.328Z,22.15
2019-03-31T04:29:12.937Z,22.05
2019-03-31T04:30:48.517Z,21.57
2019-03-31T04:32:24.141Z,21.97
2019-03-31T04:33:59.741Z,21.95
2019-03-31T04:35:35.347Z,20.70
2019-03-31T04:37:10.935Z,20.50
2019-03-31T04:38:47.073Z,22.73
2019-03-31T04:40:22.669Z,22.52
2019-03-31T04:41:58.256Z,22.50
2019-03-31T04:43:33.923Z,21.20
2019-03-31T04:45:09.768Z,21.48
2019-03-31T04:46:45.371Z,21.15
2019-03-31T04:48:20.985Z,19.67
2019-03-31T04:49:56.812Z,18.70
2019-03-31T04:51:32.381Z,19.73
2019-03-31T04:53:07.970Z,21.07
2019-03-31T04:54:43.553Z,21.85
2019-03-31T04:56:19.145Z,21.80
2019-03-31T04:57:54.718Z,22.07
2019-03-31T04:59:30.631Z,21.27
2019-03-31T05:01:06.686Z,21.57
2019-03-31T05:02:42.585Z,21.17
2019-03-31T05:04:18.161Z,21.45
2019-03-31T05:05:54.335Z,21.12
2019-03-31T05:07:31.927Z,21.30
2019-03-31T05:09:08.187Z,21.25
2019-03-31T05:10:44.177Z,20.35
2019-03-31T05:12:20.655Z,20.30
2019-03-31T05:13:56.593Z,18.90
2019-03-31T05:15:32.477Z,19.85
2019-03-31T05:17:08.735Z,19.00
2019-03-31T05:18:44.342Z,18.17
2019-03-31T05:20:19.941Z,19.65
2019-03-31T05:21:55.520Z,18.00
2019-03-31T05:23:31.090Z,17.80
2019-03-31T05:25:06.884Z,19.02
2019-03-31T05:26:42.459Z,18.15
2019-03-31T05:28:18.073Z,18.17
2019-03-31T05:29:54.079Z,17.75
2019-03-31T05:31:29.657Z,17.50
2019-03-31T05:33:05.680Z,17.60
2019-03-31T05:34:41.307Z,17.40
2019-03-31T05:36:16.888Z,17.25
2019-03-31T05:37:52.495Z,16.52
2019-03-31T05:39:27.452Z,15.88
2019-03-31T05:41:02.352Z,15.43
2019-03-31T05:42:37.252Z,15.88
2019-03-31T05:44:12.182Z,15.40
2019-03-31T05:45:47.089Z,16.32
2019-03-31T05:47:22.977Z,15.25
2019-03-31T05:48:58.578Z,14.28
2019-03-31T05:50:33.601Z,16.05
2019-03-31T05:52:08.510Z,15.48
2019-03-31T05:53:43.414Z,15.10
2019-03-31T05:55:18.942Z,16.20
2019-03-31T05:56:54.659Z,16.30
2019-03-31T05:58:30.249Z,15.77
2019-03-31T06:00:06.554Z,15.40
2019-03-31T06:01:42.423Z,15.37
2019-03-31T06:03:18.474Z,16.60
2019-03-31T06:04:54.657Z,15.97
2019-03-31T06:06:31.599Z,17.73
2019-03-31T06:08:07.654Z,17.50
2019-03-31T06:09:43.248Z,18.50
2019-03-31T06:11:18.826Z,17.90
2019-03-31T06:12:54.430Z,19.53
2019-03-31T06:14:30.326Z,18.37
2019-03-31T06:16:05.986Z,16.87
2019-03-31T06:17:42.028Z,18.00
2019-03-31T06:19:17.866Z,17.40
2019-03-31T06:20:53.954Z,17.57
2019-03-31T06:22:29.818Z,17.27
2019-03-31T06:24:06.027Z,16.07
2019-03-31T06:25:42.106Z,18.00
2019-03-31T06:27:17.685Z,16.27
2019-03-31T06:28:53.533Z,17.73
2019-03-31T06:30:29.179Z,17.47
2019-03-31T06:32:04.776Z,18.70
2019-03-31T06:33:40.588Z,18.93
2019-03-31T06:35:16.288Z,19.10
2019-03-31T06:36:52.183Z,19.60
2019-03-31T06:38:28.011Z,20.23
2019-03-31T06:40:03.664Z,20.73
2019-03-31T06:41:39.351Z,21.40
2019-03-31T06:43:15.189Z,19.80
2019-03-31T06:44:50.767Z,21.10
2019-03-31T06:46:26.643Z,20.90
2019-03-31T06:48:02.255Z,21.80
2019-03-31T06:49:37.847Z,21.53
2019-03-31T06:51:16.944Z,21.80
2019-03-31T06:52:51.337Z,19.73
2019-03-31T06:54:27.178Z,21.20
2019-03-31T06:56:03.003Z,21.17
2019-03-31T06:57:38.869Z,20.97
2019-03-31T06:59:14.715Z,22.83
2019-03-31T07:00:50.327Z,22.57
2019-03-31T07:02:25.877Z,24.13
2019-03-31T07:04:01.493Z,22.47
2019-03-31T07:05:37.089Z,22.93
2019-03-31T07:07:12.925Z,23.87
2019-03-31T07:08:48.505Z,23.03
2019-03-31T07:10:24.408Z,23.33
2019-03-31T07:12:00.656Z,25.03
2019-03-31T07:13:36.264Z,24.00
2019-03-31T07:15:12.421Z,23.63
2019-03-31T07:16:48.008Z,22.63
2019-03-31T07:18:23.617Z,23.03
2019-03-31T07:19:59.452Z,23.37
2019-03-31T07:21:35.348Z,24.33
2019-03-31T07:23:10.998Z,22.53
2019-03-31T07:24:46.585Z,23.40
2019-03-31T07:26:22.284Z,22.50
2019-03-31T07:27:58.071Z,22.07
2019-03-31T07:29:33.647Z,20.90
2019-03-31T07:31:09.233Z,21.53
2019-03-31T07:32:45.330Z,22.63
2019-03-31T07:34:21.156Z,20.00
2019-03-31T07:35:56.741Z,21.80
2019-03-31T07:37:46.329Z,21.63
2019-03-31T07:39:10.017Z,21.70
2019-03-31T07:40:46.220Z,20.97
2019-03-31T07:42:21.796Z,21.33
2019-03-31T07:43:57.358Z,21.87
2019-03-31T07:45:32.965Z,20.47
2019-03-31T07:47:08.551Z,20.53
2019-03-31T07:48:44.131Z,21.20
2019-03-31T07:50:20.766Z,21.87
2019-03-31T07:51:56.375Z,20.77
2019-03-31T07:53:32.188Z,20.30
2019-03-31T07:55:10.102Z,20.47
2019-03-31T07:56:45.676Z,20.33
2019-03-31T07:58:21.313Z,20.57
2019-03-31T07:59:57.132Z,20.53
2019-03-31T08:01:32.731Z,19.57
2019-03-31T08:03:08.305Z,20.53
2019-03-31T08:04:44.168Z,21.63
2019-03-31T08:06:19.756Z,21.87
2019-03-31T08:07:55.336Z,20.70
2019-03-31T08:09:30.912Z,20.57
2019-03-31T08:11:06.598Z,20.83
2019-03-31T08:12:42.415Z,19.87
2019-03-31T08:14:18.029Z,22.50
2019-03-31T08:15:53.851Z,21.70
2019-03-31T08:17:29.709Z,22.63
2019-03-31T08:19:05.281Z,21.50
2019-03-31T08:20:41.184Z,22.93
2019-03-31T08:22:17.110Z,22.93
2019-03-31T08:23:52.986Z,25.47
2019-03-31T08:25:28.821Z,27.30
2019-03-31T08:27:05.730Z,26.33
2019-03-31T08:28:41.675Z,26.03
2019-03-31T08:30:18.936Z,27.40
2019-03-31T08:31:54.778Z,25.67
2019-03-31T08:33:30.967Z,27.53
2019-03-31T08:35:07.748Z,36.00
2019-03-31T08:36:43.328Z,28.20
2019-03-31T08:38:18.943Z,31.83
2019-03-31T08:39:54.782Z,30.97
2019-03-31T08:41:30.933Z,33.47
2019-03-31T08:43:06.522Z,31.30
2019-03-31T08:44:42.333Z,32.10
2019-03-31T08:46:17.966Z,31.93
2019-03-31T08:47:53.553Z,32.30
2019-03-31T08:49:29.834Z,32.27
2019-03-31T08:51:05.887Z,32.03
2019-03-31T08:52:41.884Z,33.07
2019-03-31T08:54:17.500Z,32.47
2019-03-31T08:55:53.088Z,33.47
2019-03-31T08:57:28.764Z,31.60
2019-03-31T08:59:04.702Z,32.20
2019-03-31T09:00:47.209Z,32.63
2019-03-31T09:02:28.158Z,33.20
2019-03-31T09:04:04.018Z,32.47
2019-03-31T09:05:39.854Z,32.60
2019-03-31T09:07:15.476Z,33.17
2019-03-31T09:08:51.295Z,32.93
2019-03-31T09:10:27.126Z,29.43
2019-03-31T09:12:02.950Z,30.43
2019-03-31T09:13:38.801Z,29.70
2019-03-31T09:15:14.735Z,30.87
2019-03-31T09:16:50.314Z,30.27
2019-03-31T09:18:25.912Z,29.73
2019-03-31T09:20:01.524Z,31.00
2019-03-31T09:21:37.131Z,29.73
2019-03-31T09:23:12.708Z,29.63
2019-03-31T09:24:48.331Z,28.93
2019-03-31T09:26:24.029Z,29.67
2019-03-31T09:27:59.888Z,30.70
2019-03-31T09:29:35.453Z,29.07
2019-03-31T09:31:11.339Z,28.83
2019-03-31T09:32:47.181Z,29.07
2019-03-31T09:34:22.765Z,28.47
2019-03-31T09:35:58.637Z,28.40
2019-03-31T09:37:34.496Z,29.20
2019-03-31T09:39:10.060Z,28.67
2019-03-31T09:40:45.650Z,28.77
2019-03-31T09:42:21.235Z,28.10
2019-03-31T09:43:57.092Z,28.97
2019-03-31T09:45:32.679Z,29.97
2019-03-31T09:47:08.282Z,28.67
2019-03-31T09:48:44.141Z,30.50
2019-03-31T09:50:20.865Z,28.27
2019-03-31T09:51:56.457Z,28.70
2019-03-31T09:53:32.320Z,29.70
2019-03-31T09:55:09.169Z,30.87
2019-03-31T09:56:45.271Z,29.77
2019-03-31T09:58:21.091Z,30.13
2019-03-31T09:59:56.665Z,30.13
2019-03-31T10:01:32.278Z,29.60
2019-03-31T10:03:08.173Z,30.50
2019-03-31T10:04:43.757Z,31.37
2019-03-31T10:06:29.711Z,30.83
2019-03-31T10:07:56.755Z,30.57
2019-03-31T10:09:32.812Z,30.53
2019-03-31T10:11:08.643Z,29.90
2019-03-31T10:12:44.261Z,30.63
2019-03-31T10:14:19.888Z,31.10
2019-03-31T10:15:55.531Z,30.70
2019-03-31T10:17:31.112Z,31.50
2019-03-31T10:19:06.954Z,31.10
2019-03-31T10:20:42.692Z,30.17
2019-03-31T10:22:18.800Z,31.27
2019-03-31T10:23:54.618Z,31.77
2019-03-31T10:25:30.801Z,30.87
2019-03-31T10:27:07.090Z,31.67
2019-03-31T10:28:43.177Z,33.53
2019-03-31T10:30:31.287Z,31.90
2019-03-31T10:32:06.972Z,31.17
2019-03-31T10:33:43.024Z,31.30
2019-03-31T10:35:18.863Z,30.37
2019-03-31T10:36:54.690Z,28.73
2019-03-31T10:38:30.281Z,29.47
2019-03-31T10:40:07.953Z,27.97
2019-03-31T10:41:43.605Z,29.20
2019-03-31T10:43:19.195Z,30.40
2019-03-31T10:44:54.791Z,29.30
2019-03-31T10:46:30.486Z,28.23
2019-03-31T10:48:19.576Z,31.57
2019-03-31T10:49:44.111Z,31.60
2019-03-31T10:51:19.952Z,32.80
2019-03-31T10:52:55.825Z,32.27
2019-03-31T10:54:31.846Z,33.57
2019-03-31T10:56:07.494Z,32.33
2019-03-31T10:57:43.082Z,32.27
2019-03-31T10:59:18.987Z,30.93
2019-03-31T11:00:54.566Z,30.70
2019-03-31T11:02:30.489Z,31.07
2019-03-31T11:04:06.237Z,31.23
2019-03-31T11:05:41.834Z,31.33
2019-03-31T11:07:17.721Z,32.27
2019-03-31T11:08:53.302Z,31.73
2019-03-31T11:10:28.958Z,32.30
2019-03-31T11:12:04.645Z,31.77
2019-03-31T11:13:40.221Z,31.70
2019-03-31T11:15:15.819Z,32.27
2019-03-31T11:16:51.399Z,31.27
2019-03-31T11:18:27.453Z,32.43
2019-03-31T11:20:03.322Z,35.15
2019-03-31T11:22:00.765Z,31.87
2019-03-31T11:23:36.643Z,33.07
2019-03-31T11:25:20.674Z,34.00
2019-03-31T11:26:49.872Z,32.97
2019-03-31T11:28:25.738Z,33.50
2019-03-31T11:30:01.590Z,36.17
2019-03-31T11:31:37.695Z,34.63
2019-03-31T11:33:13.279Z,32.90
2019-03-31T11:34:48.875Z,33.23
2019-03-31T11:36:24.499Z,33.17
2019-03-31T11:38:00.093Z,32.67
2019-03-31T11:39:35.939Z,33.87
2019-03-31T11:41:11.527Z,34.57
2019-03-31T11:42:47.143Z,33.87
2019-03-31T11:44:22.922Z,34.47
2019-03-31T11:45:58.515Z,34.30
2019-03-31T11:47:34.105Z,34.10
2019-03-31T11:49:09.989Z,33.50
2019-03-31T11:50:45.662Z,33.53
2019-03-31T11:52:21.489Z,33.93
2019-03-31T11:53:57.310Z,35.88
2019-03-31T11:55:33.443Z,33.87
2019-03-31T11:57:09.377Z,34.10
2019-03-31T11:58:45.251Z,33.10
2019-03-31T12:00:21.449Z,33.37
2019-03-31T12:01:57.063Z,33.20
2019-03-31T12:03:32.657Z,32.97
2019-03-31T12:05:09.466Z,32.57
2019-03-31T12:06:45.306Z,33.60
2019-03-31T12:08:20.991Z,34.23
2019-03-31T12:09:56.807Z,34.50
2019-03-31T12:11:32.408Z,35.23
2019-03-31T12:13:07.986Z,34.13
2019-03-31T12:14:43.677Z,34.70
2019-03-31T12:16:19.264Z,34.50
2019-03-31T12:17:55.103Z,35.40
2019-03-31T12:19:30.947Z,34.23
2019-03-31T12:21:06.626Z,34.07
2019-03-31T12:22:42.213Z,34.27
2019-03-31T12:24:17.800Z,34.53
2019-03-31T12:25:53.386Z,35.63
2019-03-31T12:27:29.010Z,34.80
2019-03-31T12:29:04.714Z,35.20
2019-03-31T12:30:40.299Z,34.73
2019-03-31T12:32:15.887Z,35.33
2019-03-31T12:33:51.505Z,35.87
2019-03-31T12:35:27.147Z,34.13
2019-03-31T12:37:02.731Z,34.77
2019-03-31T12:38:38.306Z,33.73
2019-03-31T12:40:34.417Z,34.23
2019-03-31T12:42:11.543Z,36.03
2019-03-31T12:43:47.433Z,35.37
2019-03-31T12:45:23.018Z,33.43
2019-03-31T12:46:58.929Z,34.10
2019-03-31T12:48:34.513Z,33.00
2019-03-31T12:50:10.265Z,33.37
2019-03-31T12:51:45.891Z,35.43
2019-03-31T12:53:21.484Z,34.73
2019-03-31T12:54:57.063Z,33.77
2019-03-31T12:56:32.919Z,36.07
2019-03-31T12:58:08.578Z,34.33
2019-03-31T12:59:44.435Z,34.10
2019-03-31T13:01:20.284Z,33.50
2019-03-31T13:02:55.956Z,33.83
2019-03-31T13:04:31.541Z,33.77
2019-03-31T13:06:07.336Z,34.63
2019-03-31T13:07:55.663Z,34.37
2019-03-31T13:09:20.228Z,33.17
2019-03-31T13:10:55.825Z,33.33
2019-03-31T13:12:34.846Z,30.43
2019-03-31T13:14:09.411Z,29.57
2019-03-31T13:15:44.995Z,27.17
2019-03-31T13:17:20.910Z,27.20
2019-03-31T13:18:56.777Z,25.27
2019-03-31T13:20:32.937Z,26.00
2019-03-31T13:22:09.015Z,25.13
2019-03-31T13:23:45.086Z,25.27
2019-03-31T13:25:20.943Z,24.50
2019-03-31T13:26:56.783Z,24.03
2019-03-31T13:28:32.642Z,24.00
2019-03-31T13:30:08.591Z,20.87
2019-03-31T13:31:44.194Z,19.10
2019-03-31T13:33:19.776Z,17.33
2019-03-31T13:34:55.694Z,15.70
2019-03-31T13:36:31.542Z,15.03
2019-03-31T13:38:11.426Z,16.00
2019-03-31T13:39:44.545Z,16.10
2019-03-31T13:41:20.203Z,17.50
2019-03-31T13:42:56.045Z,17.10
2019-03-31T13:44:31.637Z,17.10
2019-03-31T13:46:07.355Z,17.33
2019-03-31T13:47:42.951Z,15.50
2019-03-31T13:49:18.614Z,15.87
2019-03-31T13:50:54.224Z,17.17
2019-03-31T13:52:29.813Z,17.67
2019-03-31T13:54:05.480Z,18.33
2019-03-31T13:55:41.077Z,18.10
2019-03-31T13:57:17.262Z,17.23
2019-03-31T13:58:53.697Z,17.17
2019-03-31T14:00:43.053Z,16.97
2019-03-31T14:02:18.880Z,18.10
2019-03-31T14:03:54.516Z,19.07
2019-03-31T14:05:30.272Z,19.60
2019-03-31T14:07:05.942Z,20.43
2019-03-31T14:08:41.531Z,19.80
2019-03-31T14:10:17.223Z,21.43
2019-03-31T14:11:52.825Z,20.30
2019-03-31T14:13:28.428Z,21.40
2019-03-31T14:15:18.124Z,21.87
2019-03-31T14:16:42.946Z,22.23
2019-03-31T14:18:18.534Z,22.13
2019-03-31T14:19:54.117Z,20.90
2019-03-31T14:21:29.702Z,21.53
2019-03-31T14:23:05.669Z,21.70
2019-03-31T14:24:41.281Z,21.63
2019-03-31T14:26:17.111Z,20.87
2019-03-31T14:27:52.705Z,21.17
2019-03-31T14:29:28.569Z,21.33
2019-03-31T14:31:04.444Z,20.57
2019-03-31T14:32:40.044Z,20.83
2019-03-31T14:34:15.640Z,20.53
2019-03-31T14:35:51.269Z,20.80
2019-03-31T14:37:26.869Z,20.47
2019-03-31T14:39:02.487Z,22.47
2019-03-31T14:40:38.333Z,21.27
2019-03-31T14:42:14.176Z,22.57
2019-03-31T14:43:49.763Z,22.30
2019-03-31T14:45:34.255Z,22.73
2019-03-31T14:47:10.141Z,21.23
2019-03-31T14:48:45.764Z,22.43
2019-03-31T14:50:35.264Z,22.30
2019-03-31T14:52:10.834Z,24.00
2019-03-31T14:53:46.447Z,21.93
2019-03-31T14:55:22.488Z,22.37
2019-03-31T14:56:58.077Z,22.30
2019-03-31T14:58:33.951Z,22.33
2019-03-31T15:00:14.950Z,22.70
2019-03-31T15:01:47.466Z,21.73
2019-03-31T15:03:23.331Z,24.13
2019-03-31T15:04:58.924Z,23.27
2019-03-31T15:06:34.600Z,21.80
2019-03-31T15:08:10.482Z,21.77
2019-03-31T15:09:46.068Z,21.30
2019-03-31T15:11:22.281Z,21.67
2019-03-31T15:12:58.358Z,19.93
2019-03-31T15:14:34.565Z,21.10
2019-03-31T15:16:10.156Z,21.43
2019-03-31T15:17:45.752Z,20.17
2019-03-31T15:19:21.359Z,19.67
2019-03-31T15:20:57.375Z,20.17
2019-03-31T15:22:33.208Z,19.60
2019-03-31T15:24:08.809Z,19.33
2019-03-31T15:25:44.392Z,19.13
2019-03-31T15:27:20.080Z,19.03
2019-03-31T15:28:55.907Z,20.03
2019-03-31T15:30:31.503Z,19.17
2019-03-31T15:32:07.081Z,19.00
2019-03-31T15:33:42.714Z,18.60
2019-03-31T15:35:18.292Z,18.33
2019-03-31T15:36:53.897Z,19.03
2019-03-31T15:38:29.489Z,19.50
2019-03-31T15:40:06.085Z,18.70
2019-03-31T15:41:41.660Z,19.60
2019-03-31T15:43:17.252Z,19.80
2019-03-31T15:44:52.853Z,18.93
2019-03-31T15:46:28.485Z,19.43
2019-03-31T15:48:04.277Z,19.17
2019-03-31T15:49:39.957Z,18.70
2019-03-31T15:51:15.546Z,18.17
2019-03-31T15:52:51.237Z,19.20
2019-03-31T15:54:27.108Z,18.50
2019-03-31T15:56:03.988Z,17.80
2019-03-31T15:57:39.834Z,18.47
2019-03-31T15:59:15.513Z,17.60
2019-03-31T16:00:51.257Z,18.60
2019-03-31T16:02:27.871Z,18.73
2019-03-31T16:04:03.450Z,17.83
2019-03-31T16:05:39.237Z,17.47
2019-03-31T16:07:15.091Z,18.40
2019-03-31T16:08:49.874Z,17.87
2019-03-31T16:10:24.733Z,18.70
2019-03-31T16:11:59.561Z,17.63
2019-03-31T16:13:34.675Z,17.00
2019-03-31T16:15:09.969Z,20.12
2019-03-31T16:16:44.748Z,18.83
2019-03-31T16:18:19.569Z,17.63
2019-03-31T16:19:54.343Z,17.57
2019-03-31T16:21:29.360Z,17.47
2019-03-31T16:23:04.920Z,15.87
2019-03-31T16:24:42.953Z,15.17
2019-03-31T16:26:17.977Z,15.27
2019-03-31T16:27:52.904Z,13.97
2019-03-31T16:29:27.677Z,14.53
2019-03-31T16:31:02.558Z,13.43
2019-03-31T16:32:37.340Z,13.30
2019-03-31T16:34:12.367Z,13.83
2019-03-31T16:35:47.403Z,13.00
2019-03-31T16:37:22.219Z,13.17
2019-03-31T16:39:00.174Z,12.40
2019-03-31T16:40:35.055Z,11.60
2019-03-31T16:42:10.065Z,11.93
2019-03-31T16:43:45.126Z,13.53
2019-03-31T16:45:20.001Z,16.23
2019-03-31T16:46:54.508Z,14.43
2019-03-31T16:48:28.895Z,10.50
2019-03-31T16:50:03.644Z,10.47
2019-03-31T16:51:38.365Z,12.10
2019-03-31T16:53:12.782Z,11.47
2019-03-31T16:54:47.408Z,11.57
2019-03-31T16:56:22.034Z,12.13
2019-03-31T16:57:57.021Z,10.67
2019-03-31T16:59:31.458Z,10.07
2019-03-31T17:01:05.892Z,10.80
2019-03-31T17:02:40.290Z,10.23
2019-03-31T17:04:15.081Z,9.27
2019-03-31T17:05:49.518Z,8.80
2019-03-31T17:07:24.472Z,8.60
2019-03-31T17:08:58.857Z,9.37
2019-03-31T17:10:33.657Z,9.17
2019-03-31T17:12:08.354Z,9.03
2019-03-31T17:13:42.708Z,9.10
2019-03-31T17:15:17.511Z,8.77
2019-03-31T17:16:51.874Z,8.40
2019-03-31T17:18:26.238Z,16.03
2019-03-31T17:20:00.884Z,29.33
2019-03-31T17:21:35.626Z,9.83
2019-03-31T17:23:10.313Z,7.87
2019-03-31T17:24:45.430Z,7.87
2019-03-31T17:26:20.046Z,7.37
2019-03-31T17:27:54.774Z,7.10
2019-03-31T17:29:29.681Z,7.73
2019-03-31T17:31:04.109Z,7.47
2019-03-31T17:32:38.524Z,7.23
2019-03-31T17:34:13.646Z,7.37
2019-03-31T17:35:48.255Z,6.97
2019-03-31T17:37:22.609Z,6.83
2019-03-31T17:38:58.004Z,6.60
2019-03-31T17:40:32.937Z,6.80
2019-03-31T17:42:07.826Z,6.27
2019-03-31T17:43:42.207Z,6.67
2019-03-31T17:45:17.407Z,6.53
2019-03-31T17:46:51.976Z,6.60
2019-03-31T17:48:26.573Z,6.63
2019-03-31T17:50:00.937Z,6.30
2019-03-31T17:51:35.781Z,6.00
2019-03-31T17:53:10.488Z,7.07
2019-03-31T17:54:45.237Z,6.37
2019-03-31T17:56:19.900Z,6.40
2019-03-31T17:57:54.511Z,6.53
2019-03-31T17:59:29.235Z,6.83
2019-03-31T18:01:03.728Z,5.97
2019-03-31T18:02:38.124Z,6.43
2019-03-31T18:04:12.966Z,5.27
2019-03-31T18:05:47.401Z,5.50
2019-03-31T18:07:21.765Z,5.83
2019-03-31T18:08:56.289Z,5.23
2019-03-31T18:10:30.918Z,6.13
2019-03-31T18:12:05.693Z,5.50
2019-03-31T18:13:40.056Z,5.60
2019-03-31T18:15:14.575Z,5.83
2019-03-31T18:16:49.167Z,5.53
2019-03-31T18:18:23.811Z,5.60
2019-03-31T18:19:58.428Z,5.40
2019-03-31T18:21:33.045Z,5.57
2019-03-31T18:23:07.872Z,5.97
2019-03-31T18:24:42.803Z,5.00
2019-03-31T18:26:17.544Z,5.03
2019-03-31T18:27:52.142Z,4.47
2019-03-31T18:29:26.555Z,5.43
2019-03-31T18:31:01.343Z,4.87
2019-03-31T18:32:35.932Z,5.10
2019-03-31T18:34:11.261Z,5.13
2019-03-31T18:35:45.642Z,4.93
2019-03-31T18:37:20.113Z,4.70
2019-03-31T18:38:54.557Z,4.40
2019-03-31T18:40:35.400Z,4.50
2019-03-31T18:42:05.394Z,4.47
2019-03-31T18:43:50.567Z,4.10
2019-03-31T18:45:15.841Z,4.03
2019-03-31T18:46:50.525Z,4.27
2019-03-31T18:48:24.885Z,3.90
2019-03-31T18:49:59.334Z,4.17
2019-03-31T18:51:33.781Z,3.97
2019-03-31T18:53:09.998Z,4.50
2019-03-31T18:55:11.830Z,4.40
2019-03-31T18:56:51.183Z,4.13
2019-03-31T18:58:36.440Z,4.20
2019-03-31T19:00:29.682Z,3.83
2019-03-31T19:02:38.597Z,4.37
2019-03-31T19:04:36.268Z,4.10
2019-03-31T19:06:32.771Z,3.90
2019-03-31T19:08:22.472Z,4.47
2019-03-31T19:10:24.825Z,4.55
2019-03-31T19:12:17.639Z,4.05
2019-03-31T19:14:11.954Z,4.50
2019-03-31T19:16:05.701Z,4.62
2019-03-31T19:17:52.483Z,4.28
2019-03-31T19:19:34.165Z,4.75
2019-03-31T19:21:14.590Z,5.00
2019-03-31T19:23:11.954Z,4.62
2019-03-31T19:25:08.466Z,4.83
2019-03-31T19:27:11.454Z,4.97
2019-03-31T19:29:08.493Z,5.67
2019-03-31T19:30:59.614Z,5.97
2019-03-31T19:32:50.503Z,5.50
2019-03-31T19:34:46.671Z,5.95
2019-03-31T19:36:38.413Z,6.00
2019-03-31T19:38:26.323Z,6.62
2019-03-31T19:40:08.915Z,6.10
2019-03-31T19:41:59.990Z,7.08
2019-03-31T19:43:44.588Z,7.40
2019-03-31T19:47:31.755Z,7.40
2019-03-31T19:49:14.569Z,7.53
2019-03-31T19:51:17.146Z,8.63
2019-03-31T19:53:03.724Z,8.35
2019-03-31T19:54:45.422Z,9.10
2019-03-31T19:56:37.964Z,9.68
2019-03-31T19:58:31.757Z,10.53
2019-03-31T20:00:26.155Z,9.25
2019-03-31T20:02:18.486Z,9.48
2019-03-31T20:04:01.977Z,8.85
2019-03-31T20:05:56.249Z,8.58
2019-03-31T20:07:56.286Z,9.58
2019-03-31T20:09:55.965Z,8.80
2019-03-31T20:11:46.457Z,9.00
2019-03-31T20:13:31.693Z,8.85
2019-03-31T20:15:23.961Z,8.63
2019-03-31T20:17:32.994Z,8.48
2019-03-31T20:19:34.340Z,8.23
2019-03-31T20:21:14.573Z,8.08
2019-03-31T20:23:00.671Z,8.83
2019-03-31T20:25:00.275Z,8.88
2019-03-31T20:26:55.476Z,7.87
2019-03-31T20:28:48.227Z,9.35
2019-03-31T20:30:40.685Z,9.53
2019-03-31T20:32:33.194Z,8.13
2019-03-31T20:34:12.624Z,8.63
2019-03-31T20:36:03.455Z,8.13
2019-03-31T20:37:52.997Z,8.23
2019-03-31T20:39:56.027Z,8.48
2019-03-31T20:41:29.948Z,8.13
2019-03-31T20:43:26.432Z,8.33
2019-03-31T20:45:00.804Z,8.85
2019-03-31T20:46:35.275Z,8.98
2019-03-31T20:48:09.644Z,9.03
2019-03-31T20:49:44.106Z,9.73
2019-03-31T20:51:18.461Z,9.08
2019-03-31T20:52:52.869Z,9.23
2019-03-31T20:54:27.216Z,9.00
2019-03-31T20:56:01.913Z,8.98
2019-03-31T20:57:36.521Z,9.03
2019-03-31T20:59:11.074Z,8.10
2019-03-31T21:00:45.427Z,9.00